sensor_id;sensor_type;location;lat;lon;timestamp;P1;durP1;ratioP1;P2;durP2;ratioP2
41719;SDS011;27405;53.316;-6.294;2023-02-01T00:01:34;32.75;;;5.65;;
41719;SDS011;27405;53.316;-6.294;2023-02-01T00:04:00;27.38;;;5.80;;
41719;SDS011;27405;53.316;-6.294;2023-02-01T00:06:26;31.92;;;5.60;;
41719;SDS011;27405;53.316;-6.294;2023-02-01T00:08:52;23.23;;;4.65;;
41719;SDS011;27405;53.316;-6.294;2023-02-01T00:11:19;29.02;;;5.05;;
41719;SDS011;27405;53.316;-6.294;2023-02-01T00:13:45;30.08;;;5.80;;
41719;SDS011;27405;53.316;-6.294;2023-02-01T00:16:12;33.40;;;5.45;;
41719;SDS011;27405;53.316;-6.294;2023-02-01T00:18:43;33.53;;;5.53;;
41719;SDS011;27405;53.316;-6.294;2023-02-01T00:21:12;30.73;;;4.70;;
41719;SDS011;27405;53.316;-6.294;2023-02-01T00:23:39;26.08;;;4.03;;
41719;SDS011;27405;53.316;-6.294;2023-02-01T00:26:06;34.72;;;5.50;;
41719;SDS011;27405;53.316;-6.294;2023-02-01T00:28:35;29.98;;;4.68;;
41719;SDS011;27405;53.316;-6.294;2023-02-01T00:31:02;27.48;;;4.45;;
41719;SDS011;27405;53.316;-6.294;2023-02-01T00:33:29;29.80;;;4.20;;
41719;SDS011;27405;53.316;-6.294;2023-02-01T00:36:06;35.13;;;5.00;;
41719;SDS011;27405;53.316;-6.294;2023-02-01T00:38:33;26.05;;;4.78;;
41719;SDS011;27405;53.316;-6.294;2023-02-01T00:41:02;21.92;;;4.10;;
41719;SDS011;27405;53.316;-6.294;2023-02-01T00:43:31;22.50;;;4.25;;
41719;SDS011;27405;53.316;-6.294;2023-02-01T00:45:58;29.60;;;4.32;;
41719;SDS011;27405;53.316;-6.294;2023-02-01T00:48:24;29.02;;;4.35;;
41719;SDS011;27405;53.316;-6.294;2023-02-01T00:50:50;24.33;;;3.58;;
41719;SDS011;27405;53.316;-6.294;2023-02-01T00:53:16;26.70;;;4.10;;
41719;SDS011;27405;53.316;-6.294;2023-02-01T00:55:45;23.48;;;4.30;;
41719;SDS011;27405;53.316;-6.294;2023-02-01T00:58:12;22.55;;;4.22;;
41719;SDS011;27405;53.316;-6.294;2023-02-01T01:00:38;25.58;;;3.47;;
41719;SDS011;27405;53.316;-6.294;2023-02-01T01:03:03;20.35;;;4.60;;
41719;SDS011;27405;53.316;-6.294;2023-02-01T01:08:14;28.70;;;3.92;;
41719;SDS011;27405;53.316;-6.294;2023-02-01T01:10:41;26.17;;;4.63;;
41719;SDS011;27405;53.316;-6.294;2023-02-01T01:13:07;26.52;;;3.90;;
41719;SDS011;27405;53.316;-6.294;2023-02-01T01:15:36;26.88;;;4.20;;
41719;SDS011;27405;53.316;-6.294;2023-02-01T01:18:03;30.30;;;5.07;;
41719;SDS011;27405;53.316;-6.294;2023-02-01T01:20:29;27.25;;;4.35;;
41719;SDS011;27405;53.316;-6.294;2023-02-01T01:22:55;24.13;;;4.03;;
41719;SDS011;27405;53.316;-6.294;2023-02-01T01:25:20;25.38;;;4.15;;
41719;SDS011;27405;53.316;-6.294;2023-02-01T01:27:46;31.55;;;4.57;;
41719;SDS011;27405;53.316;-6.294;2023-02-01T01:30:12;23.83;;;4.00;;
41719;SDS011;27405;53.316;-6.294;2023-02-01T01:32:38;30.10;;;4.50;;
41719;SDS011;27405;53.316;-6.294;2023-02-01T01:35:04;25.35;;;4.80;;
41719;SDS011;27405;53.316;-6.294;2023-02-01T01:37:31;24.15;;;4.32;;
41719;SDS011;27405;53.316;-6.294;2023-02-01T01:39:57;33.55;;;4.72;;
41719;SDS011;27405;53.316;-6.294;2023-02-01T01:42:22;26.58;;;4.05;;
41719;SDS011;27405;53.316;-6.294;2023-02-01T01:45:04;37.38;;;4.93;;
41719;SDS011;27405;53.316;-6.294;2023-02-01T01:47:34;32.00;;;4.40;;
41719;SDS011;27405;53.316;-6.294;2023-02-01T01:50:05;27.60;;;4.63;;
41719;SDS011;27405;53.316;-6.294;2023-02-01T01:52:33;36.65;;;5.03;;
41719;SDS011;27405;53.316;-6.294;2023-02-01T01:55:00;29.98;;;5.13;;
41719;SDS011;27405;53.316;-6.294;2023-02-01T01:57:31;28.60;;;4.97;;
41719;SDS011;27405;53.316;-6.294;2023-02-01T02:00:03;39.95;;;5.13;;
41719;SDS011;27405;53.316;-6.294;2023-02-01T02:02:33;34.80;;;4.85;;
41719;SDS011;27405;53.316;-6.294;2023-02-01T02:05:01;30.08;;;5.53;;
41719;SDS011;27405;53.316;-6.294;2023-02-01T02:07:28;36.53;;;5.07;;
41719;SDS011;27405;53.316;-6.294;2023-02-01T02:09:57;31.83;;;4.45;;
41719;SDS011;27405;53.316;-6.294;2023-02-01T02:12:23;29.88;;;4.75;;
41719;SDS011;27405;53.316;-6.294;2023-02-01T02:14:48;31.77;;;5.50;;
41719;SDS011;27405;53.316;-6.294;2023-02-01T02:25:28;33.10;;;4.97;;
41719;SDS011;27405;53.316;-6.294;2023-02-01T02:44:34;34.58;;;5.50;;
41719;SDS011;27405;53.316;-6.294;2023-02-01T02:50:49;31.35;;;5.10;;
41719;SDS011;27405;53.316;-6.294;2023-02-01T02:53:53;32.40;;;5.15;;
41719;SDS011;27405;53.316;-6.294;2023-02-01T02:56:50;32.67;;;5.40;;
41719;SDS011;27405;53.316;-6.294;2023-02-01T02:59:36;27.25;;;4.35;;
41719;SDS011;27405;53.316;-6.294;2023-02-01T03:02:23;32.22;;;4.65;;
41719;SDS011;27405;53.316;-6.294;2023-02-01T03:05:10;28.20;;;4.90;;
41719;SDS011;27405;53.316;-6.294;2023-02-01T03:10:18;34.10;;;5.28;;
41719;SDS011;27405;53.316;-6.294;2023-02-01T03:13:09;27.70;;;4.93;;
41719;SDS011;27405;53.316;-6.294;2023-02-01T03:15:40;31.77;;;4.53;;
41719;SDS011;27405;53.316;-6.294;2023-02-01T03:18:19;41.13;;;5.82;;
41719;SDS011;27405;53.316;-6.294;2023-02-01T03:20:51;31.77;;;4.90;;
41719;SDS011;27405;53.316;-6.294;2023-02-01T03:23:19;30.33;;;4.85;;
41719;SDS011;27405;53.316;-6.294;2023-02-01T03:25:48;27.85;;;4.45;;
41719;SDS011;27405;53.316;-6.294;2023-02-01T03:28:17;28.23;;;5.20;;
41719;SDS011;27405;53.316;-6.294;2023-02-01T03:30:47;30.77;;;4.97;;
41719;SDS011;27405;53.316;-6.294;2023-02-01T03:33:19;29.48;;;4.95;;
41719;SDS011;27405;53.316;-6.294;2023-02-01T03:41:37;34.03;;;4.70;;
41719;SDS011;27405;53.316;-6.294;2023-02-01T03:46:33;28.73;;;5.40;;
41719;SDS011;27405;53.316;-6.294;2023-02-01T03:49:06;30.90;;;5.05;;
41719;SDS011;27405;53.316;-6.294;2023-02-01T03:51:36;33.22;;;5.20;;
41719;SDS011;27405;53.316;-6.294;2023-02-01T03:54:05;33.00;;;4.80;;
41719;SDS011;27405;53.316;-6.294;2023-02-01T03:56:34;35.05;;;4.80;;
41719;SDS011;27405;53.316;-6.294;2023-02-01T03:59:02;34.85;;;5.88;;
41719;SDS011;27405;53.316;-6.294;2023-02-01T04:01:29;35.83;;;5.07;;
41719;SDS011;27405;53.316;-6.294;2023-02-01T04:03:56;32.33;;;4.07;;
41719;SDS011;27405;53.316;-6.294;2023-02-01T04:06:24;34.63;;;6.00;;
41719;SDS011;27405;53.316;-6.294;2023-02-01T04:08:50;31.48;;;5.10;;
41719;SDS011;27405;53.316;-6.294;2023-02-01T04:11:16;32.75;;;4.93;;
41719;SDS011;27405;53.316;-6.294;2023-02-01T04:13:42;38.10;;;5.55;;
41719;SDS011;27405;53.316;-6.294;2023-02-01T04:16:08;29.00;;;5.13;;
41719;SDS011;27405;53.316;-6.294;2023-02-01T04:18:34;33.45;;;5.25;;
41719;SDS011;27405;53.316;-6.294;2023-02-01T04:21:00;29.83;;;4.80;;
41719;SDS011;27405;53.316;-6.294;2023-02-01T04:23:27;31.65;;;5.72;;
41719;SDS011;27405;53.316;-6.294;2023-02-01T04:25:53;31.40;;;4.55;;
41719;SDS011;27405;53.316;-6.294;2023-02-01T04:28:19;29.23;;;4.57;;
41719;SDS011;27405;53.316;-6.294;2023-02-01T04:30:45;29.33;;;4.50;;
41719;SDS011;27405;53.316;-6.294;2023-02-01T04:33:11;37.40;;;4.80;;
41719;SDS011;27405;53.316;-6.294;2023-02-01T04:35:39;37.05;;;5.05;;
41719;SDS011;27405;53.316;-6.294;2023-02-01T04:38:05;25.55;;;3.53;;
41719;SDS011;27405;53.316;-6.294;2023-02-01T04:40:32;35.47;;;5.53;;
41719;SDS011;27405;53.316;-6.294;2023-02-01T04:42:58;28.67;;;4.43;;
41719;SDS011;27405;53.316;-6.294;2023-02-01T04:45:25;32.28;;;4.75;;
41719;SDS011;27405;53.316;-6.294;2023-02-01T04:47:50;35.30;;;5.47;;
41719;SDS011;27405;53.316;-6.294;2023-02-01T04:50:16;31.95;;;5.38;;
41719;SDS011;27405;53.316;-6.294;2023-02-01T04:52:42;27.92;;;4.90;;
41719;SDS011;27405;53.316;-6.294;2023-02-01T04:55:10;37.25;;;6.60;;
41719;SDS011;27405;53.316;-6.294;2023-02-01T04:57:36;25.92;;;4.50;;
41719;SDS011;27405;53.316;-6.294;2023-02-01T05:00:04;32.67;;;4.70;;
41719;SDS011;27405;53.316;-6.294;2023-02-01T05:02:30;29.23;;;5.20;;
41719;SDS011;27405;53.316;-6.294;2023-02-01T05:04:57;31.23;;;4.47;;
41719;SDS011;27405;53.316;-6.294;2023-02-01T05:07:23;28.50;;;5.70;;
41719;SDS011;27405;53.316;-6.294;2023-02-01T05:09:48;26.60;;;4.80;;
41719;SDS011;27405;53.316;-6.294;2023-02-01T05:12:14;32.72;;;4.38;;
41719;SDS011;27405;53.316;-6.294;2023-02-01T05:14:58;36.83;;;5.00;;
41719;SDS011;27405;53.316;-6.294;2023-02-01T05:17:24;33.58;;;4.88;;
41719;SDS011;27405;53.316;-6.294;2023-02-01T05:19:50;32.75;;;5.07;;
41719;SDS011;27405;53.316;-6.294;2023-02-01T05:22:15;30.70;;;4.50;;
41719;SDS011;27405;53.316;-6.294;2023-02-01T05:24:41;33.50;;;5.65;;
41719;SDS011;27405;53.316;-6.294;2023-02-01T05:27:07;36.28;;;5.50;;
41719;SDS011;27405;53.316;-6.294;2023-02-01T05:29:32;35.45;;;5.30;;
41719;SDS011;27405;53.316;-6.294;2023-02-01T05:31:58;27.75;;;4.35;;
41719;SDS011;27405;53.316;-6.294;2023-02-01T05:34:24;30.27;;;4.90;;
41719;SDS011;27405;53.316;-6.294;2023-02-01T05:36:49;33.30;;;5.35;;
41719;SDS011;27405;53.316;-6.294;2023-02-01T05:39:15;34.33;;;4.97;;
41719;SDS011;27405;53.316;-6.294;2023-02-01T05:41:40;38.63;;;5.78;;
41719;SDS011;27405;53.316;-6.294;2023-02-01T05:44:06;27.30;;;5.47;;
41719;SDS011;27405;53.316;-6.294;2023-02-01T05:46:32;38.85;;;5.78;;
41719;SDS011;27405;53.316;-6.294;2023-02-01T05:48:59;30.73;;;4.88;;
41719;SDS011;27405;53.316;-6.294;2023-02-01T05:51:25;29.52;;;4.35;;
41719;SDS011;27405;53.316;-6.294;2023-02-01T05:53:51;33.53;;;5.15;;
41719;SDS011;27405;53.316;-6.294;2023-02-01T05:56:17;36.72;;;5.50;;
41719;SDS011;27405;53.316;-6.294;2023-02-01T05:58:43;38.72;;;6.05;;
41719;SDS011;27405;53.316;-6.294;2023-02-01T06:01:08;34.30;;;5.95;;
41719;SDS011;27405;53.316;-6.294;2023-02-01T06:03:34;34.28;;;4.85;;
41719;SDS011;27405;53.316;-6.294;2023-02-01T06:06:00;44.85;;;5.60;;
41719;SDS011;27405;53.316;-6.294;2023-02-01T06:08:26;32.45;;;5.05;;
41719;SDS011;27405;53.316;-6.294;2023-02-01T06:10:59;29.73;;;4.68;;
41719;SDS011;27405;53.316;-6.294;2023-02-01T06:13:26;32.60;;;5.38;;
41719;SDS011;27405;53.316;-6.294;2023-02-01T06:15:52;30.25;;;4.82;;
41719;SDS011;27405;53.316;-6.294;2023-02-01T06:18:18;32.45;;;4.75;;
41719;SDS011;27405;53.316;-6.294;2023-02-01T06:20:44;38.05;;;4.65;;
41719;SDS011;27405;53.316;-6.294;2023-02-01T06:23:09;29.90;;;4.32;;
41719;SDS011;27405;53.316;-6.294;2023-02-01T06:25:35;33.75;;;5.20;;
41719;SDS011;27405;53.316;-6.294;2023-02-01T06:28:02;31.52;;;4.82;;
41719;SDS011;27405;53.316;-6.294;2023-02-01T06:30:30;30.98;;;4.60;;
41719;SDS011;27405;53.316;-6.294;2023-02-01T06:32:56;35.95;;;5.13;;
41719;SDS011;27405;53.316;-6.294;2023-02-01T06:35:22;34.72;;;4.72;;
41719;SDS011;27405;53.316;-6.294;2023-02-01T06:37:48;36.15;;;5.22;;
41719;SDS011;27405;53.316;-6.294;2023-02-01T06:40:13;38.15;;;4.93;;
41719;SDS011;27405;53.316;-6.294;2023-02-01T06:42:39;32.38;;;5.10;;
41719;SDS011;27405;53.316;-6.294;2023-02-01T06:45:05;32.22;;;4.78;;
41719;SDS011;27405;53.316;-6.294;2023-02-01T06:47:32;36.55;;;5.63;;
41719;SDS011;27405;53.316;-6.294;2023-02-01T06:49:57;28.85;;;4.70;;
41719;SDS011;27405;53.316;-6.294;2023-02-01T06:52:23;32.25;;;5.53;;
41719;SDS011;27405;53.316;-6.294;2023-02-01T06:54:49;33.13;;;5.40;;
41719;SDS011;27405;53.316;-6.294;2023-02-01T06:57:14;32.25;;;5.03;;
41719;SDS011;27405;53.316;-6.294;2023-02-01T06:59:40;35.20;;;5.18;;
41719;SDS011;27405;53.316;-6.294;2023-02-01T07:02:08;35.30;;;5.25;;
41719;SDS011;27405;53.316;-6.294;2023-02-01T07:04:35;33.70;;;5.28;;
41719;SDS011;27405;53.316;-6.294;2023-02-01T07:07:01;32.05;;;4.40;;
41719;SDS011;27405;53.316;-6.294;2023-02-01T07:09:27;25.55;;;4.60;;
41719;SDS011;27405;53.316;-6.294;2023-02-01T07:11:52;30.38;;;5.30;;
41719;SDS011;27405;53.316;-6.294;2023-02-01T07:14:18;35.42;;;5.65;;
41719;SDS011;27405;53.316;-6.294;2023-02-01T07:16:44;28.30;;;5.15;;
41719;SDS011;27405;53.316;-6.294;2023-02-01T07:19:09;33.08;;;4.90;;
41719;SDS011;27405;53.316;-6.294;2023-02-01T07:21:35;35.65;;;5.00;;
41719;SDS011;27405;53.316;-6.294;2023-02-01T07:24:01;34.58;;;5.03;;
41719;SDS011;27405;53.316;-6.294;2023-02-01T07:26:26;42.10;;;5.90;;
41719;SDS011;27405;53.316;-6.294;2023-02-01T07:28:52;33.58;;;5.25;;
41719;SDS011;27405;53.316;-6.294;2023-02-01T07:31:18;30.77;;;5.38;;
41719;SDS011;27405;53.316;-6.294;2023-02-01T07:33:46;30.83;;;5.18;;
41719;SDS011;27405;53.316;-6.294;2023-02-01T07:36:16;38.95;;;5.97;;
41719;SDS011;27405;53.316;-6.294;2023-02-01T07:38:42;35.33;;;5.97;;
41719;SDS011;27405;53.316;-6.294;2023-02-01T07:41:08;27.77;;;4.53;;
41719;SDS011;27405;53.316;-6.294;2023-02-01T07:43:34;36.50;;;5.72;;
41719;SDS011;27405;53.316;-6.294;2023-02-01T07:46:01;29.80;;;4.80;;
41719;SDS011;27405;53.316;-6.294;2023-02-01T07:48:28;38.45;;;6.45;;
41719;SDS011;27405;53.316;-6.294;2023-02-01T07:51:28;34.55;;;5.50;;
41719;SDS011;27405;53.316;-6.294;2023-02-01T07:53:47;35.03;;;4.75;;
41719;SDS011;27405;53.316;-6.294;2023-02-01T07:56:16;31.77;;;4.82;;
41719;SDS011;27405;53.316;-6.294;2023-02-01T07:58:47;36.65;;;4.90;;
41719;SDS011;27405;53.316;-6.294;2023-02-01T08:01:17;27.08;;;4.63;;
41719;SDS011;27405;53.316;-6.294;2023-02-01T08:03:52;35.45;;;5.10;;
41719;SDS011;27405;53.316;-6.294;2023-02-01T08:06:20;27.67;;;4.38;;
41719;SDS011;27405;53.316;-6.294;2023-02-01T08:08:46;31.35;;;5.47;;
41719;SDS011;27405;53.316;-6.294;2023-02-01T08:11:13;30.17;;;5.20;;
41719;SDS011;27405;53.316;-6.294;2023-02-01T08:13:39;36.33;;;6.20;;
41719;SDS011;27405;53.316;-6.294;2023-02-01T08:16:07;38.63;;;5.55;;
41719;SDS011;27405;53.316;-6.294;2023-02-01T08:18:34;33.53;;;5.18;;
41719;SDS011;27405;53.316;-6.294;2023-02-01T08:21:09;30.27;;;4.85;;
41719;SDS011;27405;53.316;-6.294;2023-02-01T08:23:37;36.30;;;5.00;;
41719;SDS011;27405;53.316;-6.294;2023-02-01T08:26:11;32.88;;;5.45;;
41719;SDS011;27405;53.316;-6.294;2023-02-01T08:28:40;35.92;;;4.97;;
41719;SDS011;27405;53.316;-6.294;2023-02-01T08:31:09;38.15;;;6.00;;
41719;SDS011;27405;53.316;-6.294;2023-02-01T08:33:36;32.67;;;4.38;;
41719;SDS011;27405;53.316;-6.294;2023-02-01T08:36:03;31.50;;;4.82;;
41719;SDS011;27405;53.316;-6.294;2023-02-01T08:38:30;35.80;;;5.13;;
41719;SDS011;27405;53.316;-6.294;2023-02-01T08:40:56;27.48;;;4.63;;
41719;SDS011;27405;53.316;-6.294;2023-02-01T08:43:22;32.17;;;5.65;;
41719;SDS011;27405;53.316;-6.294;2023-02-01T08:45:48;30.63;;;4.90;;
41719;SDS011;27405;53.316;-6.294;2023-02-01T08:48:14;29.95;;;4.63;;
41719;SDS011;27405;53.316;-6.294;2023-02-01T08:50:40;29.17;;;4.90;;
41719;SDS011;27405;53.316;-6.294;2023-02-01T08:53:06;35.88;;;5.20;;
41719;SDS011;27405;53.316;-6.294;2023-02-01T08:55:31;33.13;;;4.90;;
41719;SDS011;27405;53.316;-6.294;2023-02-01T08:57:57;34.97;;;5.97;;
41719;SDS011;27405;53.316;-6.294;2023-02-01T09:00:23;31.45;;;5.78;;
41719;SDS011;27405;53.316;-6.294;2023-02-01T09:02:48;30.02;;;4.78;;
41719;SDS011;27405;53.316;-6.294;2023-02-01T09:05:14;32.95;;;5.18;;
41719;SDS011;27405;53.316;-6.294;2023-02-01T09:07:41;31.35;;;4.88;;
41719;SDS011;27405;53.316;-6.294;2023-02-01T09:10:07;39.20;;;5.75;;
41719;SDS011;27405;53.316;-6.294;2023-02-01T09:12:34;34.40;;;6.55;;
41719;SDS011;27405;53.316;-6.294;2023-02-01T09:15:00;27.73;;;5.25;;
41719;SDS011;27405;53.316;-6.294;2023-02-01T09:17:26;30.98;;;5.25;;
41719;SDS011;27405;53.316;-6.294;2023-02-01T09:19:53;28.02;;;4.60;;
41719;SDS011;27405;53.316;-6.294;2023-02-01T09:22:18;33.88;;;5.53;;
41719;SDS011;27405;53.316;-6.294;2023-02-01T09:24:44;39.03;;;6.50;;
41719;SDS011;27405;53.316;-6.294;2023-02-01T09:27:10;39.90;;;5.50;;
41719;SDS011;27405;53.316;-6.294;2023-02-01T09:29:36;38.55;;;6.07;;
41719;SDS011;27405;53.316;-6.294;2023-02-01T09:32:01;26.40;;;4.03;;
41719;SDS011;27405;53.316;-6.294;2023-02-01T09:34:27;33.97;;;5.22;;
41719;SDS011;27405;53.316;-6.294;2023-02-01T09:36:53;33.13;;;5.47;;
41719;SDS011;27405;53.316;-6.294;2023-02-01T09:39:18;32.47;;;5.78;;
41719;SDS011;27405;53.316;-6.294;2023-02-01T09:46:53;29.42;;;5.28;;
41719;SDS011;27405;53.316;-6.294;2023-02-01T09:49:31;33.30;;;6.00;;
41719;SDS011;27405;53.316;-6.294;2023-02-01T09:52:01;41.22;;;5.53;;
41719;SDS011;27405;53.316;-6.294;2023-02-01T09:54:52;28.65;;;5.25;;
41719;SDS011;27405;53.316;-6.294;2023-02-01T10:00:34;35.45;;;5.93;;
41719;SDS011;27405;53.316;-6.294;2023-02-01T10:03:02;33.67;;;5.47;;
41719;SDS011;27405;53.316;-6.294;2023-02-01T10:05:52;33.10;;;5.10;;
41719;SDS011;27405;53.316;-6.294;2023-02-01T10:25:48;27.35;;;4.93;;
41719;SDS011;27405;53.316;-6.294;2023-02-01T10:28:25;34.75;;;5.15;;
41719;SDS011;27405;53.316;-6.294;2023-02-01T10:30:52;23.73;;;3.60;;
41719;SDS011;27405;53.316;-6.294;2023-02-01T10:33:24;27.80;;;4.80;;
41719;SDS011;27405;53.316;-6.294;2023-02-01T10:35:52;32.03;;;4.78;;
41719;SDS011;27405;53.316;-6.294;2023-02-01T10:38:30;24.42;;;4.35;;
41719;SDS011;27405;53.316;-6.294;2023-02-01T10:41:02;24.55;;;4.40;;
41719;SDS011;27405;53.316;-6.294;2023-02-01T10:43:33;30.73;;;4.93;;
41719;SDS011;27405;53.316;-6.294;2023-02-01T10:46:00;25.77;;;4.50;;
41719;SDS011;27405;53.316;-6.294;2023-02-01T10:48:25;25.23;;;4.18;;
41719;SDS011;27405;53.316;-6.294;2023-02-01T10:50:58;32.33;;;5.13;;
41719;SDS011;27405;53.316;-6.294;2023-02-01T10:53:41;24.60;;;4.18;;
41719;SDS011;27405;53.316;-6.294;2023-02-01T10:56:11;27.00;;;4.72;;
41719;SDS011;27405;53.316;-6.294;2023-02-01T10:58:47;39.67;;;5.40;;
41719;SDS011;27405;53.316;-6.294;2023-02-01T11:01:57;30.45;;;5.53;;
41719;SDS011;27405;53.316;-6.294;2023-02-01T11:04:09;30.95;;;5.68;;
41719;SDS011;27405;53.316;-6.294;2023-02-01T11:06:41;31.10;;;5.05;;
41719;SDS011;27405;53.316;-6.294;2023-02-01T11:14:19;31.27;;;5.03;;
41719;SDS011;27405;53.316;-6.294;2023-02-01T11:16:53;30.92;;;5.25;;
41719;SDS011;27405;53.316;-6.294;2023-02-01T11:19:25;29.40;;;5.35;;
41719;SDS011;27405;53.316;-6.294;2023-02-01T11:21:51;26.95;;;4.57;;
41719;SDS011;27405;53.316;-6.294;2023-02-01T11:24:26;35.28;;;5.50;;
41719;SDS011;27405;53.316;-6.294;2023-02-01T11:27:03;31.08;;;5.60;;
41719;SDS011;27405;53.316;-6.294;2023-02-01T11:29:38;30.05;;;5.22;;
41719;SDS011;27405;53.316;-6.294;2023-02-01T11:32:07;34.38;;;5.10;;
41719;SDS011;27405;53.316;-6.294;2023-02-01T11:34:42;35.97;;;5.47;;
41719;SDS011;27405;53.316;-6.294;2023-02-01T11:37:21;33.28;;;5.82;;
41719;SDS011;27405;53.316;-6.294;2023-02-01T11:39:55;37.05;;;6.10;;
41719;SDS011;27405;53.316;-6.294;2023-02-01T11:42:26;27.63;;;4.80;;
41719;SDS011;27405;53.316;-6.294;2023-02-01T11:45:15;28.40;;;5.32;;
41719;SDS011;27405;53.316;-6.294;2023-02-01T11:48:09;31.02;;;5.40;;
41719;SDS011;27405;53.316;-6.294;2023-02-01T11:50:44;30.73;;;5.50;;
41719;SDS011;27405;53.316;-6.294;2023-02-01T11:56:12;32.58;;;5.53;;
41719;SDS011;27405;53.316;-6.294;2023-02-01T12:01:27;36.72;;;5.05;;
41719;SDS011;27405;53.316;-6.294;2023-02-01T12:13:30;24.85;;;4.57;;
41719;SDS011;27405;53.316;-6.294;2023-02-01T12:32:06;26.92;;;4.80;;
41719;SDS011;27405;53.316;-6.294;2023-02-01T12:37:23;27.52;;;4.68;;
41719;SDS011;27405;53.316;-6.294;2023-02-01T12:43:18;23.90;;;4.40;;
41719;SDS011;27405;53.316;-6.294;2023-02-01T12:45:57;32.65;;;4.40;;
41719;SDS011;27405;53.316;-6.294;2023-02-01T12:48:49;24.55;;;3.85;;
41719;SDS011;27405;53.316;-6.294;2023-02-01T12:51:21;30.30;;;4.53;;
41719;SDS011;27405;53.316;-6.294;2023-02-01T12:53:53;24.05;;;4.40;;
41719;SDS011;27405;53.316;-6.294;2023-02-01T12:56:35;27.20;;;4.78;;
41719;SDS011;27405;53.316;-6.294;2023-02-01T13:05:20;28.35;;;4.20;;
41719;SDS011;27405;53.316;-6.294;2023-02-01T13:07:58;21.73;;;3.75;;
41719;SDS011;27405;53.316;-6.294;2023-02-01T13:15:45;30.53;;;5.13;;
41719;SDS011;27405;53.316;-6.294;2023-02-01T13:18:37;26.90;;;4.43;;
41719;SDS011;27405;53.316;-6.294;2023-02-01T13:21:18;26.33;;;4.97;;
41719;SDS011;27405;53.316;-6.294;2023-02-01T13:23:50;24.92;;;3.92;;
41719;SDS011;27405;53.316;-6.294;2023-02-01T13:26:17;26.27;;;4.25;;
41719;SDS011;27405;53.316;-6.294;2023-02-01T13:28:47;20.13;;;4.05;;
41719;SDS011;27405;53.316;-6.294;2023-02-01T13:36:30;27.05;;;4.40;;
41719;SDS011;27405;53.316;-6.294;2023-02-01T13:41:52;19.60;;;3.67;;
41719;SDS011;27405;53.316;-6.294;2023-02-01T13:44:26;23.00;;;3.50;;
41719;SDS011;27405;53.316;-6.294;2023-02-01T13:46:58;21.40;;;4.13;;
41719;SDS011;27405;53.316;-6.294;2023-02-01T13:49:28;21.77;;;3.90;;
41719;SDS011;27405;53.316;-6.294;2023-02-01T13:51:57;19.85;;;4.30;;
41719;SDS011;27405;53.316;-6.294;2023-02-01T13:54:33;24.10;;;3.78;;
41719;SDS011;27405;53.316;-6.294;2023-02-01T13:57:04;23.05;;;3.65;;
41719;SDS011;27405;53.316;-6.294;2023-02-01T14:02:35;19.73;;;3.22;;
41719;SDS011;27405;53.316;-6.294;2023-02-01T14:05:09;19.40;;;3.20;;
41719;SDS011;27405;53.316;-6.294;2023-02-01T14:10:51;20.85;;;3.70;;
41719;SDS011;27405;53.316;-6.294;2023-02-01T14:13:26;18.27;;;3.17;;
41719;SDS011;27405;53.316;-6.294;2023-02-01T14:23:41;23.53;;;4.30;;
41719;SDS011;27405;53.316;-6.294;2023-02-01T14:26:10;25.10;;;4.60;;
41719;SDS011;27405;53.316;-6.294;2023-02-01T14:28:40;22.45;;;4.22;;
41719;SDS011;27405;53.316;-6.294;2023-02-01T14:32:02;19.20;;;3.28;;
41719;SDS011;27405;53.316;-6.294;2023-02-01T14:37:27;17.75;;;3.20;;
41719;SDS011;27405;53.316;-6.294;2023-02-01T14:39:49;20.83;;;3.95;;
41719;SDS011;27405;53.316;-6.294;2023-02-01T14:42:43;23.08;;;3.95;;
41719;SDS011;27405;53.316;-6.294;2023-02-01T14:47:52;22.73;;;3.88;;
41719;SDS011;27405;53.316;-6.294;2023-02-01T15:08:56;18.35;;;3.13;;
41719;SDS011;27405;53.316;-6.294;2023-02-01T15:11:27;22.88;;;4.05;;
41719;SDS011;27405;53.316;-6.294;2023-02-01T15:13:53;21.25;;;4.45;;
41719;SDS011;27405;53.316;-6.294;2023-02-01T15:16:22;24.33;;;3.92;;
41719;SDS011;27405;53.316;-6.294;2023-02-01T15:18:49;18.67;;;3.70;;
41719;SDS011;27405;53.316;-6.294;2023-02-01T15:21:17;19.77;;;3.50;;
41719;SDS011;27405;53.316;-6.294;2023-02-01T15:23:45;24.83;;;3.88;;
41719;SDS011;27405;53.316;-6.294;2023-02-01T15:26:26;21.80;;;4.13;;
41719;SDS011;27405;53.316;-6.294;2023-02-01T15:28:53;18.38;;;3.35;;
41719;SDS011;27405;53.316;-6.294;2023-02-01T15:34:00;22.15;;;3.95;;
41719;SDS011;27405;53.316;-6.294;2023-02-01T15:36:26;21.98;;;4.03;;
41719;SDS011;27405;53.316;-6.294;2023-02-01T15:41:52;21.67;;;3.70;;
41719;SDS011;27405;53.316;-6.294;2023-02-01T15:44:33;21.92;;;3.45;;
41719;SDS011;27405;53.316;-6.294;2023-02-01T15:47:10;21.45;;;3.75;;
41719;SDS011;27405;53.316;-6.294;2023-02-01T15:49:41;25.48;;;3.55;;
41719;SDS011;27405;53.316;-6.294;2023-02-01T15:52:45;16.98;;;2.80;;
41719;SDS011;27405;53.316;-6.294;2023-02-01T15:55:05;21.33;;;3.35;;
41719;SDS011;27405;53.316;-6.294;2023-02-01T15:57:36;18.58;;;4.30;;
41719;SDS011;27405;53.316;-6.294;2023-02-01T16:00:06;17.05;;;3.47;;
41719;SDS011;27405;53.316;-6.294;2023-02-01T16:02:51;20.13;;;3.58;;
41719;SDS011;27405;53.316;-6.294;2023-02-01T16:08:02;20.88;;;3.53;;
41719;SDS011;27405;53.316;-6.294;2023-02-01T16:10:41;20.30;;;3.28;;
41719;SDS011;27405;53.316;-6.294;2023-02-01T16:13:08;20.23;;;3.60;;
41719;SDS011;27405;53.316;-6.294;2023-02-01T16:15:35;13.73;;;3.20;;
41719;SDS011;27405;53.316;-6.294;2023-02-01T16:18:02;17.23;;;2.88;;
41719;SDS011;27405;53.316;-6.294;2023-02-01T16:20:27;19.25;;;2.88;;
41719;SDS011;27405;53.316;-6.294;2023-02-01T16:22:54;20.08;;;3.72;;
41719;SDS011;27405;53.316;-6.294;2023-02-01T16:25:20;17.33;;;3.97;;
41719;SDS011;27405;53.316;-6.294;2023-02-01T16:27:46;18.48;;;4.07;;
41719;SDS011;27405;53.316;-6.294;2023-02-01T16:30:11;20.25;;;4.13;;
41719;SDS011;27405;53.316;-6.294;2023-02-01T16:32:37;18.80;;;3.50;;
41719;SDS011;27405;53.316;-6.294;2023-02-01T16:35:13;18.50;;;3.72;;
41719;SDS011;27405;53.316;-6.294;2023-02-01T16:37:46;16.67;;;3.95;;
41719;SDS011;27405;53.316;-6.294;2023-02-01T16:40:13;20.35;;;3.67;;
41719;SDS011;27405;53.316;-6.294;2023-02-01T16:42:43;20.05;;;4.03;;
41719;SDS011;27405;53.316;-6.294;2023-02-01T16:45:12;22.25;;;4.30;;
41719;SDS011;27405;53.316;-6.294;2023-02-01T16:47:38;21.98;;;4.30;;
41719;SDS011;27405;53.316;-6.294;2023-02-01T16:50:14;22.15;;;4.20;;
41719;SDS011;27405;53.316;-6.294;2023-02-01T16:52:41;27.75;;;6.22;;
41719;SDS011;27405;53.316;-6.294;2023-02-01T16:55:12;29.05;;;7.80;;
41719;SDS011;27405;53.316;-6.294;2023-02-01T16:57:40;26.95;;;5.18;;
41719;SDS011;27405;53.316;-6.294;2023-02-01T17:00:07;20.50;;;5.30;;
41719;SDS011;27405;53.316;-6.294;2023-02-01T17:02:34;20.98;;;4.40;;
41719;SDS011;27405;53.316;-6.294;2023-02-01T17:05:00;20.02;;;4.38;;
41719;SDS011;27405;53.316;-6.294;2023-02-01T17:07:25;20.88;;;4.50;;
41719;SDS011;27405;53.316;-6.294;2023-02-01T17:09:51;20.40;;;4.40;;
41719;SDS011;27405;53.316;-6.294;2023-02-01T17:14:50;25.38;;;5.28;;
41719;SDS011;27405;53.316;-6.294;2023-02-01T17:17:17;21.70;;;5.20;;
41719;SDS011;27405;53.316;-6.294;2023-02-01T17:19:45;23.05;;;4.60;;
41719;SDS011;27405;53.316;-6.294;2023-02-01T17:22:16;24.55;;;4.55;;
41719;SDS011;27405;53.316;-6.294;2023-02-01T17:24:43;27.15;;;4.97;;
41719;SDS011;27405;53.316;-6.294;2023-02-01T17:27:09;20.13;;;4.38;;
41719;SDS011;27405;53.316;-6.294;2023-02-01T17:29:35;20.10;;;4.43;;
41719;SDS011;27405;53.316;-6.294;2023-02-01T17:32:01;20.05;;;4.32;;
41719;SDS011;27405;53.316;-6.294;2023-02-01T17:34:27;25.13;;;5.93;;